Aérodrome :
LOGIN :

S'inscrire | Disclaimer

   EN    FR    IT 

 










Légende :    VFR   VFR Marginal   IFR   IFR Intensif   IFR Très Intensif
Visi : 
Plafond : 
>= 8 km
>= 3000ft
5 à 8 km
1000 à 3000 ft
1500m à 5 km
500 à 1000 ft
800 à 1500m
200 à 500 ft
< 800m
< 200 ft
Symboles :   Orages  Brouillard  Fortes neiges  Fortes précipitations  Vent > 20 kt
SIGMETs :   Divers  Orages  Givrage  Turbulence  Onde Orograph.  Cendres Volcan.






- Altitude de l'aérodrome : 768 ft
- Code IATA : MXP


LIMC - Milano Malpensa

DERNIER METAR :
  • 261550Z 21004KT 160V240 CAVOK 23/09 Q1025 NOSIG

METARs EXPIRÉS :
  • 261520Z 19004KT 140V230 CAVOK 23/08 Q1025 NOSIG
  • 261450Z 20005KT 150V250 CAVOK 23/09 Q1025 NOSIG
  • 261420Z 21005KT 180V250 CAVOK 23/10 Q1025 NOSIG
  • 261350Z 20004KT 160V240 CAVOK 23/09 Q1025 NOSIG
  • 261320Z 19004KT 130V260 CAVOK 23/08 Q1025 NOSIG
  • 261250Z 15003KT 090V220 CAVOK 23/08 Q1026 NOSIG

TAF TAF LIMC
Valide du 26 à 12h jusqu'au 27 à 18h UTC


261100Z 2612/2718 10010KT CAVOK
BECMG 2620/2622 VRB05KT



MET'MAP, la Météo Aéronautique d'un coup d'oeil ! - Copyright ORBIFLY Décembre 2007 - Disclaimer

ORBIFLY MET'MAP TEAM :

Programmation & Développement : Alexandra Zaïnal
Sur une idée originale de : Baudouin d'Aumeries
Assistance à la programmation : Marc-Olivier Méhu
Soutien technique & logistique : Manuel Goepfert

Contact : metmap@orbifly.com




SOURCES & CREDITS :

   NOAA